createdAt,value
2023-04-09T00:01:27.265Z,101010.88
2023-04-09T00:03:54.383Z,101008.27
2023-04-09T00:06:21.511Z,101005.09
2023-04-09T00:08:48.661Z,101002.33
2023-04-09T00:11:15.724Z,100999.46
2023-04-09T00:13:42.801Z,100994.77
2023-04-09T00:16:09.974Z,100997.64
2023-04-09T00:18:37.152Z,100993.34
2023-04-09T00:21:04.387Z,100997.50
2023-04-09T00:23:31.456Z,100997.90
2023-04-09T00:25:58.529Z,100990.57
2023-04-09T00:28:25.705Z,100992.38
2023-04-09T00:30:52.877Z,100986.14
2023-04-09T00:33:19.957Z,100989.28
2023-04-09T00:35:47.063Z,100990.10
2023-04-09T00:38:14.322Z,100990.66
2023-04-09T00:40:41.615Z,100989.98
2023-04-09T00:43:08.879Z,100987.11
2023-04-09T00:45:36.606Z,100987.11
2023-04-09T00:48:03.914Z,100984.27
2023-04-09T00:50:31.174Z,100984.98
2023-04-09T00:52:58.231Z,100988.89
2023-04-09T00:55:25.582Z,100982.10
2023-04-09T00:57:52.815Z,100980.81
2023-04-09T01:00:19.889Z,100977.34
2023-04-09T01:02:48.007Z,100974.60
2023-04-09T01:05:15.822Z,100970.11
2023-04-09T01:07:55.019Z,100962.77
2023-04-09T01:10:28.219Z,100965.29
2023-04-09T01:13:02.556Z,100967.38
2023-04-09T01:15:38.645Z,100962.61
2023-04-09T01:18:25.179Z,100964.67
2023-04-09T01:21:05.144Z,100964.33
2023-04-09T01:24:02.306Z,100958.60
2023-04-09T01:27:05.686Z,100961.48
2023-04-09T01:29:51.813Z,100958.02
2023-04-09T01:32:21.330Z,100956.70
2023-04-09T01:34:49.519Z,100958.77
2023-04-09T01:37:18.360Z,100961.77
2023-04-09T01:39:47.062Z,100967.86
2023-04-09T01:42:16.209Z,100969.12
2023-04-09T01:44:45.976Z,100968.49
2023-04-09T01:47:13.747Z,100967.55
2023-04-09T01:49:42.091Z,100971.64
2023-04-09T01:52:10.151Z,100967.53
2023-04-09T01:54:37.338Z,100969.38
2023-04-09T01:57:04.453Z,100967.11
2023-04-09T01:59:31.844Z,100969.38
2023-04-09T02:02:06.377Z,100971.72
2023-04-09T02:04:37.216Z,100975.48
2023-04-09T02:07:35.658Z,100975.64
2023-04-09T02:10:04.854Z,100976.02
2023-04-09T02:12:36.486Z,100970.67
2023-04-09T02:15:04.381Z,100974.51
2023-04-09T02:17:31.585Z,100978.98
2023-04-09T02:19:58.839Z,100975.27
2023-04-09T02:22:26.058Z,100971.45
2023-04-09T02:24:53.170Z,100970.27
2023-04-09T02:27:20.328Z,100969.70
2023-04-09T02:29:47.491Z,100969.91
2023-04-09T02:32:14.739Z,100970.46
2023-04-09T02:34:42.173Z,100970.19
2023-04-09T02:37:09.357Z,100968.84
2023-04-09T02:39:36.464Z,100963.55
2023-04-09T02:42:03.673Z,100963.42
2023-04-09T02:44:30.862Z,100962.48
2023-04-09T02:46:57.891Z,100960.52
2023-04-09T02:49:25.038Z,100959.83
2023-04-09T02:51:52.145Z,100961.34
2023-04-09T02:54:19.400Z,100958.91
2023-04-09T02:56:46.489Z,100960.77
2023-04-09T02:59:13.591Z,100960.34
2023-04-09T03:01:40.789Z,100959.75
2023-04-09T03:04:08.366Z,100957.48
2023-04-09T03:06:35.584Z,100956.78
2023-04-09T03:09:02.594Z,100957.55
2023-04-09T03:11:29.653Z,100957.48
2023-04-09T03:13:56.922Z,100955.84
2023-04-09T03:16:26.169Z,100957.66
2023-04-09T03:18:53.870Z,100958.66
2023-04-09T03:21:21.376Z,100960.51
2023-04-09T03:23:49.772Z,100956.41
2023-04-09T03:26:17.061Z,100956.20
2023-04-09T03:28:47.254Z,100957.39
2023-04-09T03:31:14.410Z,100957.62
2023-04-09T03:33:42.492Z,100962.34
2023-04-09T03:36:10.428Z,100962.70
2023-04-09T03:38:54.502Z,100965.35
2023-04-09T03:41:39.479Z,100967.04
2023-04-09T03:44:10.216Z,100967.77
2023-04-09T03:46:55.006Z,100964.77
2023-04-09T03:49:22.820Z,100967.56
2023-04-09T03:51:50.537Z,100968.05
2023-04-09T03:54:18.137Z,100964.81
2023-04-09T03:56:46.042Z,100963.79
2023-04-09T03:59:13.611Z,100961.42
2023-04-09T04:01:42.795Z,100960.04
2023-04-09T04:04:10.276Z,100958.13
2023-04-09T04:06:42.540Z,100957.17
2023-04-09T04:09:30.981Z,100962.31
2023-04-09T04:12:03.416Z,100971.38
2023-04-09T04:14:47.966Z,100971.85
2023-04-09T04:17:23.261Z,100974.05
2023-04-09T04:19:51.337Z,100969.50
2023-04-09T04:22:18.538Z,100971.46
2023-04-09T04:24:46.581Z,100967.35
2023-04-09T04:27:16.472Z,100970.28
2023-04-09T04:29:43.555Z,100972.27
2023-04-09T04:32:22.051Z,100977.20
2023-04-09T04:34:50.831Z,100974.42
2023-04-09T04:37:24.091Z,100976.70
2023-04-09T04:39:54.606Z,100978.02
2023-04-09T04:42:23.303Z,100981.10
2023-04-09T04:44:50.805Z,100981.33
2023-04-09T04:47:50.388Z,100981.89
2023-04-09T04:50:17.973Z,100988.15
2023-04-09T04:53:00.749Z,100988.34
2023-04-09T04:55:31.802Z,100988.58
2023-04-09T04:58:00.605Z,100990.14
2023-04-09T05:00:28.809Z,100984.33
2023-04-09T05:02:56.298Z,100988.69
2023-04-09T05:05:46.528Z,100990.33
2023-04-09T05:08:13.841Z,100990.23
2023-04-09T05:10:43.874Z,100992.95
2023-04-09T05:13:11.324Z,100997.64
2023-04-09T05:15:41.463Z,101002.21
2023-04-09T05:18:09.215Z,100999.51
2023-04-09T05:20:36.658Z,101001.13
2023-04-09T05:23:10.299Z,101004.45
2023-04-09T05:25:41.205Z,101006.23
2023-04-09T05:28:12.780Z,101008.00
2023-04-09T05:30:40.357Z,101011.17
2023-04-09T05:33:08.262Z,101017.13
2023-04-09T05:35:39.023Z,101014.50
2023-04-09T05:38:06.605Z,101015.64
2023-04-09T05:40:35.378Z,101016.90
2023-04-09T05:43:03.147Z,101013.39
2023-04-09T05:45:38.411Z,101010.88
2023-04-09T05:48:06.717Z,101017.39
2023-04-09T05:50:43.646Z,101015.77
2023-04-09T05:53:15.221Z,101011.54
2023-04-09T05:55:42.322Z,101015.25
2023-04-09T05:58:10.004Z,101013.97
2023-04-09T06:00:37.227Z,101019.23
2023-04-09T06:03:05.062Z,101017.88
2023-04-09T06:05:32.248Z,101024.63
2023-04-09T06:07:59.341Z,101027.38
2023-04-09T06:10:26.506Z,101030.27
2023-04-09T06:12:53.725Z,101030.83
2023-04-09T06:15:21.266Z,101030.56
2023-04-09T06:17:48.406Z,101033.88
2023-04-09T06:20:15.598Z,101032.82
2023-04-09T06:22:42.709Z,101034.66
2023-04-09T06:25:10.003Z,101029.52
2023-04-09T06:27:37.173Z,101032.70
2023-04-09T06:30:04.736Z,101030.93
2023-04-09T06:32:33.732Z,101033.08
2023-04-09T06:35:05.487Z,101033.32
2023-04-09T06:37:32.605Z,101030.59
2023-04-09T06:40:01.449Z,101035.91
2023-04-09T06:42:28.929Z,101038.50
2023-04-09T06:44:59.317Z,101042.59
2023-04-09T06:47:26.543Z,101041.98
2023-04-09T06:49:53.608Z,101041.79
2023-04-09T06:52:20.676Z,101046.70
2023-04-09T06:54:47.776Z,101046.73
2023-04-09T06:57:14.856Z,101049.54
2023-04-09T06:59:42.080Z,101055.79
2023-04-09T07:02:09.396Z,101060.17
2023-04-09T07:04:36.781Z,101059.67
2023-04-09T07:07:04.040Z,101061.06
2023-04-09T07:09:31.704Z,101059.05
2023-04-09T07:11:58.907Z,101062.40
2023-04-09T07:14:26.002Z,101065.05
2023-04-09T07:16:53.093Z,101067.88
2023-04-09T07:19:20.308Z,101068.63
2023-04-09T07:21:47.338Z,101069.41
2023-04-09T07:24:14.635Z,101071.47
2023-04-09T07:26:41.687Z,101072.63
2023-04-09T07:29:08.666Z,101070.75
2023-04-09T07:31:36.251Z,101071.17
2023-04-09T07:34:03.411Z,101071.69
2023-04-09T07:36:31.928Z,101074.55
2023-04-09T07:38:59.268Z,101071.45
2023-04-09T07:41:26.542Z,101073.67
2023-04-09T07:43:53.664Z,101075.98
2023-04-09T07:46:23.757Z,101078.44
2023-04-09T07:48:51.505Z,101079.19
2023-04-09T07:51:19.478Z,101081.94
2023-04-09T07:53:46.588Z,101078.92
2023-04-09T07:56:13.886Z,101072.34
2023-04-09T07:58:41.078Z,101073.56
2023-04-09T08:01:08.883Z,101070.24
2023-04-09T08:03:37.392Z,101070.74
2023-04-09T08:06:05.127Z,101072.08
2023-04-09T08:08:32.273Z,101077.40
2023-04-09T08:10:59.509Z,101074.02
2023-04-09T08:13:26.692Z,101077.02
2023-04-09T08:15:53.912Z,101075.33
2023-04-09T08:18:21.116Z,101077.59
2023-04-09T08:20:48.463Z,101079.16
2023-04-09T08:23:15.753Z,101076.42
2023-04-09T08:25:42.848Z,101076.29
2023-04-09T08:28:09.880Z,101073.39
2023-04-09T08:30:37.023Z,101078.67
2023-04-09T08:33:04.342Z,101078.30
2023-04-09T08:35:31.791Z,101071.12
2023-04-09T08:37:59.901Z,101072.35
2023-04-09T08:40:27.083Z,101072.61
2023-04-09T08:42:57.051Z,101068.80
2023-04-09T08:45:24.428Z,101074.06
2023-04-09T08:47:52.225Z,101072.73
2023-04-09T08:50:20.092Z,101067.52
2023-04-09T08:52:49.146Z,101071.13
2023-04-09T08:55:16.589Z,101069.14
2023-04-09T08:57:43.796Z,101068.69
2023-04-09T09:00:11.538Z,101067.48
2023-04-09T09:02:39.866Z,101068.44
2023-04-09T09:05:07.491Z,101071.11
2023-04-09T09:07:34.663Z,101069.11
2023-04-09T09:10:04.607Z,101071.01
2023-04-09T09:12:32.453Z,101072.91
2023-04-09T09:14:59.586Z,101077.95
2023-04-09T09:17:26.780Z,101082.90
2023-04-09T09:19:54.129Z,101086.17
2023-04-09T09:22:21.765Z,101083.07
2023-04-09T09:24:50.667Z,101085.54
2023-04-09T09:27:36.948Z,101083.75
2023-04-09T09:30:05.892Z,101082.50
2023-04-09T09:32:33.900Z,101084.23
2023-04-09T09:35:05.531Z,101088.53
2023-04-09T09:37:34.149Z,101085.90
2023-04-09T09:40:01.449Z,101084.16
2023-04-09T09:42:28.752Z,101082.98
2023-04-09T09:44:56.271Z,101085.52
2023-04-09T09:47:23.606Z,101083.85
2023-04-09T09:49:52.201Z,101079.82
2023-04-09T09:52:26.313Z,101080.62
2023-04-09T09:54:55.986Z,101076.08
2023-04-09T09:57:26.244Z,101073.19
2023-04-09T10:00:01.947Z,101072.48
2023-04-09T10:02:48.369Z,101078.91
2023-04-09T10:05:16.535Z,101081.95
2023-04-09T10:07:45.029Z,101080.25
2023-04-09T10:10:12.360Z,101081.94
2023-04-09T10:12:41.977Z,101075.86
2023-04-09T10:15:09.905Z,101073.39
2023-04-09T10:17:37.045Z,101072.98
2023-04-09T10:20:19.789Z,101075.52
2023-04-09T10:22:50.220Z,101069.58
2023-04-09T10:25:17.739Z,101067.40
2023-04-09T10:27:46.362Z,101065.66
2023-04-09T10:30:33.164Z,101063.83
2023-04-09T10:33:17.235Z,101062.98
2023-04-09T10:35:47.256Z,101061.85
2023-04-09T10:38:15.351Z,101062.30
2023-04-09T10:40:47.914Z,101062.20
2023-04-09T10:43:20.014Z,101059.79
2023-04-09T10:45:53.565Z,101059.59
2023-04-09T10:48:22.117Z,101061.31
2023-04-09T10:50:52.378Z,101060.97
2023-04-09T10:53:26.350Z,101058.86
2023-04-09T10:55:54.355Z,101063.13
2023-04-09T10:58:21.407Z,101059.27
2023-04-09T11:00:50.373Z,101059.02
2023-04-09T11:03:20.879Z,101056.85
2023-04-09T11:05:54.109Z,101058.29
2023-04-09T11:08:22.383Z,101056.23
2023-04-09T11:10:51.886Z,101058.06
2023-04-09T11:13:21.308Z,101055.06
2023-04-09T11:15:48.597Z,101055.42
2023-04-09T11:18:20.890Z,101051.67
2023-04-09T11:20:48.492Z,101054.77
2023-04-09T11:23:16.644Z,101057.58
2023-04-09T11:25:49.659Z,101059.77
2023-04-09T11:28:17.441Z,101054.11
2023-04-09T11:30:44.619Z,101055.98
2023-04-09T11:33:11.774Z,101053.58
2023-04-09T11:35:39.184Z,101057.15
2023-04-09T11:38:08.133Z,101052.45
2023-04-09T11:40:35.409Z,101055.82
2023-04-09T11:43:03.284Z,101055.38
2023-04-09T11:45:32.028Z,101056.64
2023-04-09T11:47:59.287Z,101061.77
2023-04-09T11:50:26.793Z,101064.23
2023-04-09T11:52:54.027Z,101063.58
2023-04-09T11:55:28.171Z,101062.64
2023-04-09T11:58:01.260Z,101060.10
2023-04-09T12:00:29.283Z,101056.33
2023-04-09T12:03:05.024Z,101057.02
2023-04-09T12:05:34.359Z,101057.02
2023-04-09T12:08:05.127Z,101054.39
2023-04-09T12:10:35.443Z,101050.41
2023-04-09T12:13:03.510Z,101052.64
2023-04-09T12:15:38.594Z,101053.88
2023-04-09T12:18:09.366Z,101053.17
2023-04-09T12:20:39.680Z,101049.59
2023-04-09T12:23:08.371Z,101049.42
2023-04-09T12:25:37.756Z,101050.99
2023-04-09T12:28:06.716Z,101050.51
2023-04-09T12:30:34.785Z,101050.83
2023-04-09T12:33:03.598Z,101047.94
2023-04-09T12:35:31.316Z,101049.72
2023-04-09T12:37:59.468Z,101049.17
2023-04-09T12:40:27.547Z,101051.52
2023-04-09T12:42:54.649Z,101046.58
2023-04-09T12:45:21.938Z,101047.39
2023-04-09T12:47:49.384Z,101047.09
2023-04-09T12:50:16.769Z,101043.39
2023-04-09T12:52:44.470Z,101043.32
2023-04-09T12:55:13.019Z,101042.81
2023-04-09T12:57:47.064Z,101037.58
2023-04-09T13:00:15.122Z,101038.09
2023-04-09T13:02:42.442Z,101039.77
2023-04-09T13:05:09.853Z,101040.37
2023-04-09T13:07:37.107Z,101039.91
2023-04-09T13:10:04.574Z,101036.77
2023-04-09T13:12:31.671Z,101030.50
2023-04-09T13:14:59.388Z,101033.09
2023-04-09T13:17:26.737Z,101029.31
2023-04-09T13:19:53.872Z,101030.00
2023-04-09T13:22:21.556Z,101028.39
2023-04-09T13:24:48.696Z,101027.73
2023-04-09T13:27:17.017Z,101023.76
2023-04-09T13:29:44.146Z,101026.80
2023-04-09T13:32:11.663Z,101022.58
2023-04-09T13:34:39.822Z,101027.08
2023-04-09T13:37:07.095Z,101021.73
2023-04-09T13:39:34.800Z,101017.54
2023-04-09T13:42:05.445Z,101015.33
2023-04-09T13:44:37.240Z,101016.29
2023-04-09T13:47:04.306Z,101015.78
2023-04-09T13:49:31.476Z,101013.02
2023-04-09T13:51:59.562Z,101008.48
2023-04-09T13:54:27.273Z,101013.17
2023-04-09T13:56:54.444Z,101008.73
2023-04-09T13:59:21.692Z,101006.66
2023-04-09T14:01:49.001Z,101007.65
2023-04-09T14:04:16.856Z,101006.27
2023-04-09T14:06:44.301Z,101006.67
2023-04-09T14:09:12.228Z,101003.61
2023-04-09T14:11:39.497Z,101005.14
2023-04-09T14:14:06.720Z,101002.68
2023-04-09T14:16:33.892Z,101002.48
2023-04-09T14:19:01.193Z,101000.82
2023-04-09T14:21:29.346Z,100999.92
2023-04-09T14:23:56.579Z,101001.05
2023-04-09T14:26:24.304Z,100994.09
2023-04-09T14:28:52.177Z,100991.07
2023-04-09T14:31:21.622Z,100993.09
2023-04-09T14:33:49.203Z,100987.42
2023-04-09T14:36:16.848Z,100989.80
2023-04-09T14:38:44.173Z,100992.13
2023-04-09T14:41:11.270Z,100988.30
2023-04-09T14:43:38.378Z,100987.17
2023-04-09T14:46:06.580Z,100986.52
2023-04-09T14:48:34.325Z,100985.84
2023-04-09T14:51:01.494Z,100985.42
2023-04-09T14:53:28.623Z,100988.27
2023-04-09T14:55:55.957Z,100981.86
2023-04-09T14:58:23.114Z,100985.66
2023-04-09T15:00:50.433Z,100982.94
2023-04-09T15:03:17.896Z,100986.41
2023-04-09T15:05:45.231Z,100989.15
2023-04-09T15:08:13.248Z,100992.41
2023-04-09T15:10:40.456Z,100993.41
2023-04-09T15:13:07.549Z,100995.09
2023-04-09T15:15:34.795Z,100992.81
2023-04-09T15:18:05.969Z,100988.88
2023-04-09T15:20:37.678Z,100990.64
2023-04-09T15:23:04.769Z,100989.65
2023-04-09T15:25:32.843Z,100987.65
2023-04-09T15:27:59.939Z,100988.18
2023-04-09T15:30:27.250Z,100989.20
2023-04-09T15:32:54.554Z,100985.64
2023-04-09T15:35:25.383Z,100986.08
2023-04-09T15:37:52.856Z,100983.34
2023-04-09T15:40:20.606Z,100982.27
2023-04-09T15:42:47.764Z,100978.88
2023-04-09T15:45:16.354Z,100981.73
2023-04-09T15:47:44.916Z,100980.70
2023-04-09T15:50:12.272Z,100986.84
2023-04-09T15:52:39.507Z,100985.24
2023-04-09T15:55:06.910Z,100988.04
2023-04-09T15:57:34.090Z,100989.48
2023-04-09T16:00:01.378Z,100993.21
2023-04-09T16:02:28.711Z,100992.95
2023-04-09T16:04:56.046Z,100995.70
2023-04-09T16:07:23.174Z,100999.39
2023-04-09T16:09:50.460Z,100996.99
2023-04-09T16:12:17.596Z,101000.02
2023-04-09T16:14:44.672Z,100998.24
2023-04-09T16:17:11.798Z,101004.58
2023-04-09T16:19:38.921Z,101009.51
2023-04-09T16:22:06.514Z,101008.32
2023-04-09T16:24:33.682Z,101005.83
2023-04-09T16:27:01.609Z,101005.68
2023-04-09T16:29:28.992Z,101004.27
2023-04-09T16:31:57.647Z,101001.27
2023-04-09T16:34:25.093Z,101004.44
2023-04-09T16:36:52.306Z,101003.67
2023-04-09T16:39:19.455Z,101003.31
2023-04-09T16:41:46.654Z,101002.54
2023-04-09T16:44:13.920Z,101003.73
2023-04-09T16:46:41.062Z,101005.16
2023-04-09T16:49:08.306Z,101007.55
2023-04-09T16:51:35.824Z,101009.21
2023-04-09T16:54:03.182Z,101010.22
2023-04-09T16:56:30.338Z,101007.81
2023-04-09T16:58:57.469Z,101007.13
2023-04-09T17:01:24.740Z,101012.31
2023-04-09T17:03:52.677Z,101010.05
2023-04-09T17:06:19.928Z,101010.17
2023-04-09T17:08:47.136Z,101011.83
2023-04-09T17:11:17.518Z,101013.20
2023-04-09T17:13:45.012Z,101014.92
2023-04-09T17:16:12.396Z,101019.36
2023-04-09T17:18:39.492Z,101020.97
2023-04-09T17:21:06.866Z,101022.19
2023-04-09T17:23:33.898Z,101023.52
2023-04-09T17:26:02.278Z,101023.19
2023-04-09T17:28:29.639Z,101026.91
2023-04-09T17:30:56.748Z,101029.55
2023-04-09T17:33:23.917Z,101029.02
2023-04-09T17:35:51.280Z,101032.46
2023-04-09T17:38:21.515Z,101034.61
2023-04-09T17:40:48.858Z,101039.06
2023-04-09T17:43:17.669Z,101044.39
2023-04-09T17:45:44.954Z,101046.83
2023-04-09T17:48:12.175Z,101052.75
2023-04-09T17:50:39.229Z,101054.59
2023-04-09T17:53:06.351Z,101054.57
2023-04-09T17:55:33.664Z,101055.23
2023-04-09T17:58:00.859Z,101059.78
2023-04-09T18:00:28.114Z,101061.66
2023-04-09T18:02:56.474Z,101065.05
2023-04-09T18:05:24.322Z,101068.85
2023-04-09T18:07:52.644Z,101069.29
2023-04-09T18:10:21.651Z,101074.34
2023-04-09T18:12:48.905Z,101079.16
2023-04-09T18:15:16.961Z,101086.39
2023-04-09T18:17:44.414Z,101082.23
2023-04-09T18:20:12.934Z,101088.42
2023-04-09T18:22:41.346Z,101087.33
2023-04-09T18:25:08.714Z,101088.40
2023-04-09T18:27:36.346Z,101092.45
2023-04-09T18:30:09.365Z,101094.31
2023-04-09T18:32:37.723Z,101093.86
2023-04-09T18:35:05.140Z,101098.58
2023-04-09T18:37:34.244Z,101102.25
2023-04-09T18:40:02.871Z,101102.52
2023-04-09T18:42:30.108Z,101103.80
2023-04-09T18:44:57.249Z,101105.00
2023-04-09T18:47:26.058Z,101102.79
2023-04-09T18:49:53.398Z,101101.31
2023-04-09T18:52:20.689Z,101102.67
2023-04-09T18:54:48.438Z,101104.04
2023-04-09T18:57:15.573Z,101102.35
2023-04-09T18:59:46.654Z,101102.40
2023-04-09T19:02:14.114Z,101102.23
2023-04-09T19:04:42.178Z,101104.40
2023-04-09T19:07:09.422Z,101105.77
2023-04-09T19:09:37.503Z,101106.25
2023-04-09T19:12:05.151Z,101105.48
2023-04-09T19:14:32.228Z,101106.17
2023-04-09T19:16:59.750Z,101104.17
2023-04-09T19:19:29.083Z,101107.77
2023-04-09T19:21:56.717Z,101106.88
2023-04-09T19:24:25.076Z,101105.02
2023-04-09T19:26:54.977Z,101107.42
2023-04-09T19:29:22.371Z,101112.66
2023-04-09T19:31:49.594Z,101114.30
2023-04-09T19:34:16.711Z,101114.23
2023-04-09T19:36:43.863Z,101114.27
2023-04-09T19:39:11.235Z,101110.91
2023-04-09T19:41:38.471Z,101110.18
2023-04-09T19:44:07.490Z,101108.96
2023-04-09T19:46:34.829Z,101110.60
2023-04-09T19:49:01.985Z,101107.89
2023-04-09T19:51:29.208Z,101108.71
2023-04-09T19:53:56.605Z,101110.52
2023-04-09T19:56:23.754Z,101113.22
2023-04-09T19:58:51.105Z,101113.14
2023-04-09T20:01:18.464Z,101114.98
2023-04-09T20:03:45.798Z,101109.77
2023-04-09T20:06:13.091Z,101110.42
2023-04-09T20:08:41.020Z,101108.60
2023-04-09T20:11:08.206Z,101111.48
2023-04-09T20:13:35.329Z,101110.80
2023-04-09T20:16:02.576Z,101110.14
2023-04-09T20:18:29.636Z,101114.42
2023-04-09T20:20:56.789Z,101113.41
2023-04-09T20:23:23.857Z,101110.67
2023-04-09T20:25:55.086Z,101113.26
2023-04-09T20:28:22.231Z,101111.27
2023-04-09T20:30:49.451Z,101113.65
2023-04-09T20:33:18.249Z,101116.84
2023-04-09T20:35:45.848Z,101117.66
2023-04-09T20:38:12.977Z,101118.51
2023-04-09T20:40:40.170Z,101120.46
2023-04-09T20:43:07.192Z,101122.55
2023-04-09T20:45:34.224Z,101121.21
2023-04-09T20:48:01.561Z,101123.83
2023-04-09T20:50:29.037Z,101123.56
2023-04-09T20:52:56.210Z,101121.42
2023-04-09T20:55:24.135Z,101125.44
2023-04-09T20:57:52.019Z,101125.86
2023-04-09T21:00:19.101Z,101123.86
2023-04-09T21:02:46.553Z,101126.37
2023-04-09T21:05:22.629Z,101124.04
2023-04-09T21:07:52.531Z,101116.66
2023-04-09T21:10:20.120Z,101120.25
2023-04-09T21:12:47.386Z,101120.73
2023-04-09T21:15:14.567Z,101122.61
2023-04-09T21:17:41.567Z,101123.81
2023-04-09T21:20:09.180Z,101126.96
2023-04-09T21:22:36.359Z,101128.00
2023-04-09T21:25:03.975Z,101128.05
2023-04-09T21:27:31.337Z,101127.89
2023-04-09T21:29:58.836Z,101126.59
2023-04-09T21:32:26.047Z,101124.30
2023-04-09T21:34:53.823Z,101126.18
2023-04-09T21:37:20.911Z,101128.69
2023-04-09T21:39:49.000Z,101129.79
2023-04-09T21:42:16.084Z,101126.54
2023-04-09T21:44:43.255Z,101128.98
2023-04-09T21:47:12.325Z,101127.14
2023-04-09T21:49:40.677Z,101133.70
2023-04-09T21:52:14.445Z,101131.53
2023-04-09T21:54:42.762Z,101129.55
2023-04-09T21:57:10.940Z,101122.70
2023-04-09T21:59:38.341Z,101124.90
2023-04-09T22:02:05.841Z,101123.02
2023-04-09T22:04:35.196Z,101125.49
2023-04-09T22:07:03.392Z,101122.18
2023-04-09T22:09:30.677Z,101119.48
2023-04-09T22:11:58.566Z,101118.61
2023-04-09T22:14:29.752Z,101113.04
2023-04-09T22:16:58.519Z,101108.48
2023-04-09T22:19:26.391Z,101105.98
2023-04-09T22:21:54.513Z,101103.80
2023-04-09T22:24:30.081Z,101104.97
2023-04-09T22:26:59.135Z,101103.63
2023-04-09T22:29:26.688Z,101103.75
2023-04-09T22:31:54.656Z,101105.29
2023-04-09T22:34:22.365Z,101103.90
2023-04-09T22:36:49.829Z,101108.77
2023-04-09T22:39:17.066Z,101107.55
2023-04-09T22:41:44.497Z,101104.95
2023-04-09T22:44:11.767Z,101103.14
2023-04-09T22:46:38.992Z,101105.06
2023-04-09T22:49:06.685Z,101103.42
2023-04-09T22:51:36.763Z,101101.05
2023-04-09T22:54:04.236Z,101103.79
2023-04-09T22:56:32.410Z,101104.16
2023-04-09T22:58:59.680Z,101104.93
2023-04-09T23:01:27.538Z,101107.30
2023-04-09T23:03:55.007Z,101107.91
2023-04-09T23:06:22.691Z,101110.31
2023-04-09T23:08:50.776Z,101112.44
2023-04-09T23:11:17.916Z,101118.09
2023-04-09T23:13:44.972Z,101117.14
2023-04-09T23:16:12.383Z,101119.87
2023-04-09T23:18:39.564Z,101114.98
2023-04-09T23:21:08.144Z,101112.70
2023-04-09T23:23:36.224Z,101112.05
2023-04-09T23:26:04.132Z,101114.48
2023-04-09T23:28:31.697Z,101111.38
2023-04-09T23:30:58.946Z,101110.02
2023-04-09T23:33:26.169Z,101105.99
2023-04-09T23:35:53.608Z,101104.63
2023-04-09T23:38:20.748Z,101101.36
2023-04-09T23:40:48.910Z,101105.73
2023-04-09T23:43:16.178Z,101101.83
2023-04-09T23:45:46.251Z,101102.35
2023-04-09T23:48:13.522Z,101105.63
2023-04-09T23:50:43.237Z,101104.73
2023-04-09T23:53:11.182Z,101101.58
2023-04-09T23:55:38.686Z,101097.73
2023-04-09T23:58:05.804Z,101098.21
